Time;durP1;ratioP1;P1;durP2;ratioP2;P2;SDS_P1;SDS_P2;PMS_P1;PMS_P2;Temp;Humidity;BMP_temperature;BMP_pressure;BME280_temperature;BME280_humidity;BME280_pressure;Samples;Min_cycle;Max_cycle;Signal;HPM_P1;HPM_P2
2022/01/06 00:00:15;;;;;;;58.83;17.85;;;;;;;5.54;100.00;99810.87;1705099;83;21448;-89
2022/01/06 00:02:41;;;;;;;65.20;19.02;;;;;;;5.55;100.00;99821.30;1695510;84;20951;-88
2022/01/06 00:05:08;;;;;;;52.38;17.57;;;;;;;5.54;100.00;99817.56;1687888;84;21075;-90
2022/01/06 00:07:34;;;;;;;65.62;19.87;;;;;;;5.56;100.00;99822.94;1687643;85;21540;-89
2022/01/06 00:10:01;;;;;;;60.52;19.07;;;;;;;5.54;100.00;99822.37;1669546;85;20981;-89
2022/01/06 00:12:37;;;;;;;61.18;18.17;;;;;;;5.53;100.00;99818.09;1688410;84;21103;-89
2022/01/06 00:17:37;;;;;;;63.35;18.45;;;;;;;5.54;100.00;99804.20;1687964;85;21733;-88
2022/01/06 00:25:17;;;;;;;60.73;18.42;;;;;;;5.57;100.00;99798.36;1687483;85;21553;-89
2022/01/06 00:27:43;;;;;;;57.17;17.90;;;;;;;5.55;100.00;99797.78;1687821;85;21000;-90
2022/01/06 00:30:10;;;;;;;70.22;21.33;;;;;;;5.54;100.00;99789.50;1687949;85;21063;-89
2022/01/06 00:32:36;;;;;;;62.10;18.90;;;;;;;5.55;100.00;99795.11;1687879;85;21544;-90
2022/01/06 00:35:03;;;;;;;62.40;20.43;;;;;;;5.54;100.00;99790.30;1669692;85;21032;-89
2022/01/06 00:37:29;;;;;;;63.38;19.15;;;;;;;5.55;100.00;99786.56;1687700;85;21777;-88
2022/01/06 00:39:55;;;;;;;62.53;19.00;;;;;;;5.56;100.00;99780.69;1687543;84;20894;-89
2022/01/06 00:42:21;;;;;;;73.50;20.72;;;;;;;5.53;100.00;99782.02;1687881;84;21158;-89
2022/01/06 00:44:48;;;;;;;65.60;20.43;;;;;;;5.54;100.00;99785.48;1688078;85;21033;-90
2022/01/06 00:47:14;;;;;;;75.80;21.27;;;;;;;5.50;100.00;99778.50;1688692;83;21012;-89
2022/01/06 00:49:39;;;;;;;73.65;21.20;;;;;;;5.52;100.00;99781.72;1687744;84;21166;-90
2022/01/06 00:52:06;;;;;;;67.53;20.60;;;;;;;5.53;100.00;99782.52;1688083;84;20965;-90
2022/01/06 00:54:34;;;;;;;62.10;19.57;;;;;;;5.51;100.00;99777.97;1687897;85;21013;-89
2022/01/06 00:57:00;;;;;;;67.95;19.95;;;;;;;5.52;100.00;99777.70;1687856;84;21008;-90
2022/01/06 00:59:26;;;;;;;74.82;20.75;;;;;;;5.52;100.00;99785.72;1687993;84;21055;-90
2022/01/06 01:01:52;;;;;;;66.97;19.67;;;;;;;5.51;100.00;99781.98;1688846;84;21123;-90
2022/01/06 01:04:18;;;;;;;68.67;19.95;;;;;;;5.51;100.00;99778.77;1694593;84;21106;-89
2022/01/06 01:06:44;;;;;;;63.95;19.48;;;;;;;5.52;100.00;99786.25;1694585;84;21091;-89
2022/01/06 01:09:10;;;;;;;69.05;19.32;;;;;;;5.52;100.00;99794.27;1694674;84;20901;-89
2022/01/06 01:11:38;;;;;;;68.78;18.48;;;;;;;5.50;100.00;99795.87;1694808;84;21638;-89
2022/01/06 01:14:17;;;;;;;64.50;18.27;;;;;;;5.51;100.00;99795.34;1694312;84;21023;-89
2022/01/06 01:16:35;;;;;;;60.95;18.35;;;;;;;5.51;100.00;99778.77;1694528;84;21024;-89
2022/01/06 01:19:03;;;;;;;67.55;18.35;;;;;;;5.50;100.00;99779.84;1694538;84;21743;-90
2022/01/06 01:21:29;;;;;;;54.60;17.00;;;;;;;5.48;100.00;99780.60;1694239;84;21064;-90
2022/01/06 01:23:58;;;;;;;69.00;19.05;;;;;;;5.52;100.00;99787.59;1694808;84;20988;-89
2022/01/06 01:26:28;;;;;;;65.67;19.48;;;;;;;5.49;100.00;99792.09;1678648;84;21083;-89
2022/01/06 01:28:54;;;;;;;60.88;20.00;;;;;;;5.48;100.00;99793.16;1678738;84;21449;-90
2022/01/06 01:33:47;;;;;;;65.72;18.77;;;;;;;5.43;100.00;99777.84;1679018;84;21056;-90
2022/01/06 01:36:14;;;;;;;67.17;18.80;;;;;;;5.41;100.00;99779.95;1678846;84;21634;-88
2022/01/06 01:38:41;;;;;;;61.08;17.27;;;;;;;5.39;100.00;99774.86;1678651;84;21118;-90
2022/01/06 01:41:09;;;;;;;53.63;18.07;;;;;;;5.38;100.00;99773.77;1678809;84;21035;-90
2022/01/06 01:43:36;;;;;;;60.78;16.93;;;;;;;5.37;100.00;99777.50;1678934;84;21038;-90
2022/01/06 01:46:10;;;;;;;56.83;17.12;;;;;;;5.36;100.00;99770.02;1678729;84;21098;-89
2022/01/06 01:48:34;;;;;;;53.65;16.00;;;;;;;5.35;100.00;99772.39;1675474;84;21616;-89
2022/01/06 01:50:58;;;;;;;54.65;17.15;;;;;;;5.35;100.00;99768.38;1671768;84;20960;-90
2022/01/06 01:53:24;;;;;;;57.35;16.27;;;;;;;5.34;100.00;99776.66;1678470;84;21500;-89
2022/01/06 01:55:50;;;;;;;53.98;15.93;;;;;;;5.34;100.00;99777.98;1678895;84;21023;-89
2022/01/06 01:58:17;;;;;;;44.67;14.28;;;;;;;5.33;100.00;99767.84;1678348;84;21019;-89
2022/01/06 02:00:43;;;;;;;44.05;13.48;;;;;;;5.33;100.00;99766.50;1678802;84;21522;-89
2022/01/06 02:03:09;;;;;;;50.65;14.18;;;;;;;5.32;100.00;99763.53;1682643;83;21135;-89
2022/01/06 02:05:35;;;;;;;47.30;13.58;;;;;;;5.33;100.00;99759.02;1684145;83;21063;-90
2022/01/06 02:08:02;;;;;;;47.67;13.50;;;;;;;5.31;100.00;99752.57;1682810;83;21109;-89
2022/01/06 02:10:30;;;;;;;47.40;13.98;;;;;;;5.33;100.00;99751.01;1679526;84;21003;-90
2022/01/06 02:12:57;;;;;;;40.83;12.90;;;;;;;5.32;100.00;99755.52;1679753;84;21632;-90
2022/01/06 02:15:24;;;;;;;46.28;14.58;;;;;;;5.32;100.00;99745.36;1679375;84;21578;-89
2022/01/06 02:17:51;;;;;;;45.12;13.70;;;;;;;5.31;100.00;99748.56;1679830;84;21114;-90
2022/01/06 02:20:20;;;;;;;50.55;14.23;;;;;;;5.33;100.00;99747.80;1680053;84;21070;-90
2022/01/06 02:22:47;;;;;;;47.48;14.15;;;;;;;5.32;100.00;99742.16;1689511;83;20999;-90
2022/01/06 02:25:16;;;;;;;47.13;15.55;;;;;;;5.30;100.00;99746.95;1706534;83;21003;-90
2022/01/06 02:27:46;;;;;;;47.27;14.38;;;;;;;5.32;100.00;99752.84;1704911;84;21759;-89
2022/01/06 02:30:13;;;;;;;52.67;15.05;;;;;;;5.32;100.00;99754.71;1704718;84;21417;-90
2022/01/06 02:32:40;;;;;;;54.65;15.53;;;;;;;5.33;100.00;99753.14;1705212;84;21508;-90
2022/01/06 02:35:14;;;;;;;53.45;15.00;;;;;;;5.33;100.00;99742.46;1704802;84;21062;-91
2022/01/06 02:37:40;;;;;;;57.05;14.38;;;;;;;5.35;100.00;99751.02;1704320;84;21066;-90
2022/01/06 02:40:10;;;;;;;48.52;14.80;;;;;;;5.33;100.00;99750.47;1705010;84;21123;-90
2022/01/06 02:42:47;;;;;;;51.48;15.90;;;;;;;5.31;100.00;99746.42;1704881;84;21067;-90
2022/01/06 02:45:14;;;;;;;53.05;14.60;;;;;;;5.33;100.00;99752.34;1705128;84;21480;-90
2022/01/06 02:47:43;;;;;;;54.27;14.98;;;;;;;5.32;100.00;99754.18;1705122;84;21574;-91
2022/01/06 02:50:12;;;;;;;51.50;14.93;;;;;;;5.30;100.00;99757.64;1704768;84;21020;-90
2022/01/06 02:52:38;;;;;;;52.30;15.10;;;;;;;5.31;100.00;99755.78;1704871;83;22305;-91
2022/01/06 02:55:07;;;;;;;48.70;15.93;;;;;;;5.32;100.00;99754.71;1700313;83;21086;-90
2022/01/06 02:57:33;;;;;;;45.67;14.55;;;;;;;5.32;100.00;99749.37;1700794;84;21098;-91
2022/01/06 02:59:59;;;;;;;52.00;15.20;;;;;;;5.31;100.00;99749.09;1705255;84;21456;-90
2022/01/06 03:02:26;;;;;;;44.05;14.30;;;;;;;5.30;100.00;99751.50;1703464;83;20917;-90
2022/01/06 03:04:53;;;;;;;54.48;15.28;;;;;;;5.28;100.00;99750.92;1698143;84;21012;-90
2022/01/06 03:07:19;;;;;;;57.27;14.90;;;;;;;5.26;100.00;99745.02;1697915;84;21071;-91
2022/01/06 03:09:51;;;;;;;50.00;15.35;;;;;;;5.27;100.00;99754.12;1688628;84;21510;-90
2022/01/06 03:12:34;;;;;;;48.40;15.15;;;;;;;5.25;100.00;99750.89;1688611;84;21043;-91
2022/01/06 03:14:57;;;;;;;48.00;14.83;;;;;;;5.26;100.00;99747.15;1688428;83;21004;-92
2022/01/06 03:17:25;;;;;;;46.30;14.60;;;;;;;5.27;100.00;99750.13;1688215;85;21699;-91
2022/01/06 03:19:51;;;;;;;45.75;14.23;;;;;;;5.29;100.00;99751.20;1623639;88;21052;-91
2022/01/06 03:22:17;;;;;;;42.83;14.60;;;;;;;5.28;100.00;99749.59;1630032;88;21055;-91
2022/01/06 03:24:43;;;;;;;43.58;14.33;;;;;;;5.28;100.00;99749.06;1629944;88;21104;-91
2022/01/06 03:27:09;;;;;;;47.40;14.80;;;;;;;5.30;100.00;99756.84;1630283;88;21082;-91
2022/01/06 03:29:35;;;;;;;48.05;15.28;;;;;;;5.32;100.00;99763.53;1608476;88;21957;-92
2022/01/06 03:32:02;;;;;;;43.70;15.40;;;;;;;5.33;100.00;99758.48;1629771;88;20897;-91
2022/01/06 03:34:32;;;;;;;51.83;15.80;;;;;;;5.33;100.00;99752.34;1629693;88;21070;-91
2022/01/06 03:37:01;;;;;;;41.63;14.83;;;;;;;5.33;100.00;99756.34;1629678;88;21140;-90
2022/01/06 03:39:28;;;;;;;43.63;14.87;;;;;;;5.34;100.00;99753.41;1629929;88;21036;-91
2022/01/06 03:41:54;;;;;;;39.03;14.85;;;;;;;5.35;100.00;99762.23;1630116;88;21846;-92
2022/01/06 03:44:20;;;;;;;44.58;15.98;;;;;;;5.32;100.00;99762.19;1630031;88;20929;-92
2022/01/06 03:46:46;;;;;;;46.02;15.03;;;;;;;5.32;100.00;99760.86;1630142;88;20917;-92
2022/01/06 03:49:12;;;;;;;44.30;14.98;;;;;;;5.32;100.00;99770.20;1630093;88;21699;-92
2022/01/06 03:51:38;;;;;;;49.20;16.87;;;;;;;5.31;100.00;99763.79;1630301;88;21051;-92
2022/01/06 03:54:04;;;;;;;46.20;15.50;;;;;;;5.30;100.00;99758.98;1629855;88;21075;-91
2022/01/06 03:56:30;;;;;;;52.73;16.48;;;;;;;5.32;100.00;99764.06;1629910;88;21635;-92
2022/01/06 03:58:56;;;;;;;48.95;16.57;;;;;;;5.33;100.00;99756.34;1630019;88;21116;-92
2022/01/06 04:01:22;;;;;;;49.85;16.95;;;;;;;5.32;100.00;99754.71;1629812;88;21800;-90
2022/01/06 04:03:49;;;;;;;56.85;17.98;;;;;;;5.33;100.00;99753.67;1632853;87;20992;-90
2022/01/06 04:06:15;;;;;;;53.55;17.37;;;;;;;5.33;100.00;99753.67;1634238;87;21082;-91
2022/01/06 04:08:41;;;;;;;50.90;16.82;;;;;;;5.35;100.00;99756.89;1633818;87;21071;-91
2022/01/06 04:11:08;;;;;;;58.42;18.57;;;;;;;5.36;100.00;99749.17;1633772;87;20981;-91
2022/01/06 04:13:34;;;;;;;54.27;17.12;;;;;;;5.37;100.00;99743.57;1634230;87;21033;-91
2022/01/06 04:16:03;;;;;;;49.75;16.12;;;;;;;5.37;100.00;99743.57;1647550;84;22124;-91
2022/01/06 04:18:29;;;;;;;55.73;17.32;;;;;;;5.38;100.00;99749.72;1704747;84;21187;-91
2022/01/06 04:20:55;;;;;;;49.55;17.17;;;;;;;5.36;100.00;99748.64;1705257;84;21138;-90
2022/01/06 04:23:21;;;;;;;49.95;17.27;;;;;;;5.35;100.00;99746.20;1676809;84;21102;-92
2022/01/06 04:25:47;;;;;;;56.65;18.05;;;;;;;5.36;100.00;99741.16;1704919;84;20865;-92
2022/01/06 04:28:13;;;;;;;54.88;19.52;;;;;;;5.33;100.00;99740.32;1704929;84;20979;-92
2022/01/06 04:30:39;;;;;;;64.45;20.90;;;;;;;5.40;100.00;99744.95;1705017;84;22626;-91
2022/01/06 04:33:05;;;;;;;59.25;20.35;;;;;;;5.40;100.00;99753.77;1705278;83;21075;-92
2022/01/06 04:35:31;;;;;;;52.10;18.60;;;;;;;5.43;100.00;99760.48;1705046;83;20970;-91
2022/01/06 04:37:57;;;;;;;55.65;17.52;;;;;;;5.41;100.00;99763.92;1704826;84;21545;-91
2022/01/06 04:40:23;;;;;;;55.33;16.93;;;;;;;5.45;100.00;99766.40;1677014;84;21027;-91
2022/01/06 04:42:50;;;;;;;54.85;17.62;;;;;;;5.40;100.00;99773.00;1704631;84;21298;-92
2022/01/06 04:45:16;;;;;;;46.40;17.07;;;;;;;5.44;100.00;99782.96;1705020;84;21012;-92
2022/01/06 04:47:42;;;;;;;54.03;17.20;;;;;;;5.47;100.00;99780.30;1704937;83;21011;-91
2022/01/06 04:50:08;;;;;;;50.03;16.97;;;;;;;5.50;100.00;99770.48;1705269;83;21015;-92
2022/01/06 04:52:34;;;;;;;56.55;17.30;;;;;;;5.54;100.00;99765.45;1705162;84;20940;-92
2022/01/06 04:55:01;;;;;;;56.02;18.62;;;;;;;5.58;100.00;99766.03;1705046;84;21140;-91
2022/01/06 04:57:26;;;;;;;63.58;18.70;;;;;;;5.61;100.00;99760.72;1704690;83;21037;-91
2022/01/06 04:59:53;;;;;;;50.70;17.80;;;;;;;5.60;100.00;99763.92;1705037;84;20995;-91
2022/01/06 05:02:18;;;;;;;56.30;18.87;;;;;;;5.61;100.00;99768.20;1705022;83;21038;-91
2022/01/06 05:04:45;;;;;;;61.28;19.10;;;;;;;5.62;100.00;99765.03;1707202;83;21043;-91
2022/01/06 05:07:10;;;;;;;55.08;18.42;;;;;;;5.61;100.00;99767.40;1704941;83;21006;-92
2022/01/06 05:09:37;;;;;;;61.40;20.37;;;;;;;5.61;100.00;99771.41;1705025;84;20880;-92
2022/01/06 05:12:03;;;;;;;62.05;20.82;;;;;;;5.63;100.00;99774.66;1704726;83;21645;-92
2022/01/06 05:14:29;;;;;;;58.58;20.68;;;;;;;5.62;100.00;99771.17;1704850;84;21045;-92
2022/01/06 05:16:56;;;;;;;64.70;22.10;;;;;;;5.61;100.00;99775.42;1705566;84;20912;-92
2022/01/06 05:19:23;;;;;;;76.53;23.05;;;;;;;5.64;100.00;99783.74;1705167;84;21556;-91
2022/01/06 05:21:51;;;;;;;67.80;22.77;;;;;;;5.64;100.00;99785.08;1704889;84;21716;-91
2022/01/06 05:24:19;;;;;;;66.50;21.93;;;;;;;5.63;100.00;99789.35;1704783;84;21591;-92
2022/01/06 05:26:46;;;;;;;72.03;25.02;;;;;;;5.62;100.00;99788.55;1704689;84;21062;-91
2022/01/06 05:29:13;;;;;;;77.15;24.47;;;;;;;5.62;100.00;99790.42;1705266;84;21003;-91
2022/01/06 05:31:40;;;;;;;70.78;23.40;;;;;;;5.63;100.00;99784.01;1705453;84;21107;-92
2022/01/06 05:34:07;;;;;;;67.17;23.57;;;;;;;5.64;100.00;99778.40;1677631;84;21420;-91
2022/01/06 05:36:33;;;;;;;67.22;22.15;;;;;;;5.63;100.00;99783.47;1705634;84;21547;-91
2022/01/06 05:39:00;;;;;;;61.63;21.35;;;;;;;5.63;100.00;99786.68;1705609;83;21082;-92
2022/01/06 05:41:27;;;;;;;77.12;23.80;;;;;;;5.63;100.00;99806.73;1705305;84;21082;-91
2022/01/06 05:43:53;;;;;;;77.70;24.10;;;;;;;5.62;100.00;99818.48;1705791;83;21151;-91
2022/01/06 05:46:19;;;;;;;72.25;24.72;;;;;;;5.62;100.00;99829.98;1686889;84;21071;-91
2022/01/06 05:48:46;;;;;;;87.17;26.90;;;;;;;5.63;100.00;99823.56;1687671;85;21433;-91
2022/01/06 05:51:12;;;;;;;78.90;26.62;;;;;;;5.64;100.00;99823.03;1687592;85;21020;-91
2022/01/06 05:53:38;;;;;;;82.95;25.37;;;;;;;5.64;100.00;99830.52;1663829;85;21024;-93
2022/01/06 05:56:05;;;;;;;76.47;23.57;;;;;;;5.66;100.00;99820.93;1687705;85;21995;-92
2022/01/06 05:58:31;;;;;;;88.03;26.40;;;;;;;5.67;100.00;99832.70;1687663;85;21062;-93
2022/01/06 06:00:58;;;;;;;70.05;24.67;;;;;;;5.67;100.00;99835.91;1687300;85;21496;-93
2022/01/06 06:03:27;;;;;;;77.78;24.35;;;;;;;5.68;100.00;99849.57;1687712;85;21047;-92
2022/01/06 06:05:52;;;;;;;72.25;24.82;;;;;;;5.69;100.00;99841.82;1664107;85;21068;-92
2022/01/06 06:08:18;;;;;;;74.40;24.55;;;;;;;5.69;100.00;99838.62;1685069;84;21165;-92
2022/01/06 06:10:44;;;;;;;77.50;25.88;;;;;;;5.68;100.00;99838.88;1687394;85;20887;-93
2022/01/06 06:13:10;;;;;;;89.28;26.42;;;;;;;5.66;100.00;99852.47;1687518;83;20939;-93
2022/01/06 06:15:35;;;;;;;77.72;25.82;;;;;;;5.65;100.00;99856.74;1687654;84;21757;-92
2022/01/06 06:18:04;;;;;;;81.63;25.57;;;;;;;5.68;100.00;99854.91;1691559;83;21007;-92
2022/01/06 06:20:31;;;;;;;74.50;24.87;;;;;;;5.69;100.00;99849.31;1706551;82;22490;-92
2022/01/06 06:22:58;;;;;;;85.03;25.77;;;;;;;5.73;100.00;99845.61;1721440;82;21007;-92
2022/01/06 06:25:25;;;;;;;78.70;24.45;;;;;;;5.73;100.00;99848.81;1703997;82;21367;-90
2022/01/06 06:27:51;;;;;;;84.35;26.52;;;;;;;5.71;100.00;99854.42;1671791;83;21375;-92
2022/01/06 06:30:18;;;;;;;82.90;25.27;;;;;;;5.70;100.00;99847.44;1668053;83;21050;-92
2022/01/06 06:32:44;;;;;;;64.92;22.15;;;;;;;5.69;100.00;99844.49;1677497;83;21862;-92
2022/01/06 06:35:11;;;;;;;70.12;21.77;;;;;;;5.69;100.00;99843.16;1654168;86;21036;-93
2022/01/06 06:37:38;;;;;;;67.05;21.85;;;;;;;5.70;100.00;99842.90;1653989;85;21040;-92
2022/01/06 06:40:07;;;;;;;68.83;22.93;;;;;;;5.70;100.00;99835.41;1665654;83;21043;-92
2022/01/06 06:42:33;;;;;;;69.50;21.80;;;;;;;5.70;100.00;99842.09;1677049;83;21109;-91
2022/01/06 06:44:59;;;;;;;68.12;22.40;;;;;;;5.70;100.00;99833.54;1675100;83;21626;-91
2022/01/06 06:47:25;;;;;;;68.15;22.62;;;;;;;5.72;100.00;99844.00;1675195;84;21219;-90
2022/01/06 06:49:55;;;;;;;70.05;23.47;;;;;;;5.75;100.00;99849.39;1675887;84;21141;-92
2022/01/06 06:52:22;;;;;;;71.17;21.60;;;;;;;5.76;100.00;99849.13;1674174;84;21126;-92
2022/01/06 06:54:48;;;;;;;62.95;20.08;;;;;;;5.80;100.00;99841.45;1673954;84;21582;-92
2022/01/06 06:57:15;;;;;;;69.65;20.17;;;;;;;5.83;100.00;99850.31;1674732;84;21155;-93
2022/01/06 06:59:41;;;;;;;59.53;20.02;;;;;;;5.83;100.00;99845.77;1674891;83;21065;-92
2022/01/06 07:02:07;;;;;;;55.40;18.75;;;;;;;5.85;100.00;99842.33;1673872;83;21720;-91
2022/01/06 07:04:33;;;;;;;61.75;20.43;;;;;;;5.86;100.00;99857.30;1674885;84;22333;-92
2022/01/06 07:06:59;;;;;;;60.58;19.15;;;;;;;5.84;100.00;99855.39;1674492;84;21139;-93
2022/01/06 07:09:25;;;;;;;51.50;17.95;;;;;;;5.87;100.00;99858.11;1675734;84;21943;-92
2022/01/06 07:11:51;;;;;;;61.10;18.80;;;;;;;5.89;100.00;99860.81;1675458;84;21128;-92
2022/01/06 07:14:17;;;;;;;57.20;18.48;;;;;;;5.92;100.00;99856.31;1675354;84;22738;-92
2022/01/06 07:16:43;;;;;;;57.38;17.02;;;;;;;5.92;100.00;99849.63;1682140;83;20971;-91
2022/01/06 07:19:09;;;;;;;55.15;16.75;;;;;;;5.94;100.00;99852.07;1690909;84;21734;-91
2022/01/06 07:21:35;;;;;;;58.68;18.40;;;;;;;5.97;100.00;99848.93;1690115;84;21105;-92
2022/01/06 07:24:01;;;;;;;49.58;18.02;;;;;;;5.99;100.00;99837.97;1671761;84;20974;-91
2022/01/06 07:26:27;;;;;;;51.25;18.70;;;;;;;6.00;100.00;99840.41;1666501;84;20985;-93
2022/01/06 07:28:53;;;;;;;48.17;16.55;;;;;;;6.02;100.00;99827.58;1690234;84;20877;-93
2022/01/06 07:31:19;;;;;;;53.75;17.98;;;;;;;6.03;100.00;99842.59;1690540;84;21032;-92
2022/01/06 07:33:45;;;;;;;61.40;18.27;;;;;;;6.07;100.00;99838.34;1691195;84;21552;-92
2022/01/06 07:36:11;;;;;;;49.70;17.12;;;;;;;6.12;100.00;99846.44;1691307;84;20893;-92
2022/01/06 07:38:37;;;;;;;54.80;18.90;;;;;;;6.15;100.00;99847.81;1668197;84;21070;-92
2022/01/06 07:41:03;;;;;;;53.42;18.60;;;;;;;6.15;100.00;99863.87;1691747;84;21079;-92
2022/01/06 07:43:29;;;;;;;52.17;17.45;;;;;;;6.18;100.00;99864.70;1692044;84;21157;-91
2022/01/06 07:45:55;;;;;;;49.05;16.90;;;;;;;6.21;100.00;99881.59;1682599;84;21598;-93
2022/01/06 07:48:29;;;;;;;55.70;18.77;;;;;;;6.19;100.00;99882.36;1677447;84;21064;-94
2022/01/06 07:50:50;;;;;;;59.90;18.48;;;;;;;6.18;100.00;99889.28;1673056;85;21047;-93
2022/01/06 07:53:16;;;;;;;53.95;17.77;;;;;;;6.18;100.00;99882.59;1677153;85;21159;-93
2022/01/06 07:55:42;;;;;;;52.40;18.45;;;;;;;6.22;100.00;99874.38;1676944;84;21012;-94
2022/01/06 07:58:11;;;;;;;53.52;18.40;;;;;;;6.19;100.00;99873.53;1676896;85;21792;-94
2022/01/06 08:00:38;;;;;;;55.10;18.32;;;;;;;6.14;100.00;99878.28;1677040;85;21136;-92
2022/01/06 08:03:04;;;;;;;60.75;20.30;;;;;;;6.11;100.00;99879.58;1676904;85;21098;-93
2022/01/06 08:05:30;;;;;;;62.67;19.62;;;;;;;6.08;100.00;99863.22;1649659;85;21590;-91
2022/01/06 08:07:56;;;;;;;63.38;20.17;;;;;;;6.09;100.00;99860.84;1693391;83;20880;-92
2022/01/06 08:10:23;;;;;;;62.70;20.10;;;;;;;6.11;100.00;99861.39;1711398;82;21070;-91
2022/01/06 08:13:08;;;;;;;60.20;19.07;;;;;;;6.11;100.00;99858.72;1687117;83;21511;-91
2022/01/06 08:15:27;;;;;;;56.13;19.07;;;;;;;6.08;100.00;99853.86;1662424;83;21176;-91
2022/01/06 08:17:53;;;;;;;56.05;20.27;;;;;;;6.01;100.00;99835.33;1674877;83;21621;-93
2022/01/06 08:20:19;;;;;;;60.98;20.08;;;;;;;6.00;100.00;99836.40;1672763;83;20970;-93
2022/01/06 08:22:45;;;;;;;58.65;19.80;;;;;;;6.00;100.00;99832.39;1678661;84;22027;-92
2022/01/06 08:25:11;;;;;;;61.05;20.08;;;;;;;6.02;100.00;99836.94;1695041;83;21027;-94
2022/01/06 08:27:37;;;;;;;65.08;20.55;;;;;;;6.07;100.00;99842.89;1671382;83;21003;-91
2022/01/06 08:30:06;;;;;;;63.42;19.57;;;;;;;6.11;100.00;99864.87;1651758;83;21690;-91
2022/01/06 08:32:32;;;;;;;62.35;20.95;;;;;;;6.14;100.00;99875.07;1613696;86;21106;-92
2022/01/06 08:34:58;;;;;;;64.40;21.25;;;;;;;6.22;100.00;99882.40;1635970;86;22729;-92
2022/01/06 08:37:24;;;;;;;62.05;21.20;;;;;;;6.27;100.00;99890.50;1635972;86;20900;-93
2022/01/06 08:39:50;;;;;;;63.70;22.07;;;;;;;6.30;100.00;99890.80;1635845;86;20924;-92
2022/01/06 08:42:16;;;;;;;64.82;21.82;;;;;;;6.35;100.00;99888.70;1644510;86;20944;-91
2022/01/06 08:44:42;;;;;;;67.03;22.17;;;;;;;6.34;100.00;99889.23;1614139;86;21044;-93
2022/01/06 08:47:12;;;;;;;65.47;21.15;;;;;;;6.29;100.00;99883.81;1639673;86;22030;-94
2022/01/06 08:49:40;;;;;;;66.97;20.92;;;;;;;6.30;100.00;99884.65;1617554;87;21087;-93
2022/01/06 08:52:07;;;;;;;66.87;20.23;;;;;;;6.29;100.00;99881.67;1635662;85;21043;-94
2022/01/06 08:54:34;;;;;;;60.40;20.57;;;;;;;6.28;100.00;99867.48;1642455;86;21036;-94
2022/01/06 08:57:00;;;;;;;62.10;20.37;;;;;;;6.31;100.00;99863.52;1655987;86;21032;-93
2022/01/06 08:59:26;;;;;;;67.65;21.55;;;;;;;6.34;100.00;99867.02;1664647;86;21643;-93
2022/01/06 09:01:53;;;;;;;64.10;21.37;;;;;;;6.35;100.00;99863.28;1664168;84;21076;-93
2022/01/06 09:04:21;;;;;;;61.30;20.62;;;;;;;6.39;100.00;99868.43;1664143;84;21138;-94
2022/01/06 09:06:52;;;;;;;78.07;22.20;;;;;;;6.43;100.00;99866.05;1664292;84;21130;-94
2022/01/06 09:09:19;;;;;;;64.75;20.97;;;;;;;6.47;100.00;99876.53;1633617;86;21084;-94
2022/01/06 09:11:46;;;;;;;67.78;22.73;;;;;;;6.46;100.00;99874.39;1641811;84;21929;-94
2022/01/06 09:14:12;;;;;;;69.20;21.48;;;;;;;6.47;100.00;99888.06;1633761;87;21074;-95
2022/01/06 09:16:40;;;;;;;72.03;22.90;;;;;;;6.47;100.00;99881.38;1645625;87;21102;-94
2022/01/06 09:19:06;;;;;;;72.80;24.52;;;;;;;6.54;100.00;99890.55;1623241;87;21125;-94
2022/01/06 09:21:32;;;;;;;80.92;23.70;;;;;;;6.57;100.00;99895.39;1645655;85;21023;-94
2022/01/06 09:24:01;;;;;;;71.82;23.18;;;;;;;6.62;100.00;99902.16;1645133;87;21121;-96
2022/01/06 09:26:27;;;;;;;71.37;24.15;;;;;;;6.64;100.00;99900.02;1645013;87;21129;-93
2022/01/06 09:28:53;;;;;;;80.53;24.77;;;;;;;6.68;100.00;99901.15;1645399;87;21201;-94
2022/01/06 09:31:19;;;;;;;80.47;25.85;;;;;;;6.66;100.00;99909.95;1645345;87;20983;-94
2022/01/06 09:33:45;;;;;;;84.45;27.50;;;;;;;6.68;100.00;99907.04;1645197;87;20960;-94
2022/01/06 09:36:11;;;;;;;85.03;26.30;;;;;;;6.75;100.00;99904.42;1623133;87;21977;-94
2022/01/06 09:38:37;;;;;;;90.28;26.62;;;;;;;6.77;100.00;99886.78;1645354;87;20889;-94
2022/01/06 09:41:06;;;;;;;78.07;25.97;;;;;;;6.82;100.00;99878.28;1645191;87;21059;-94
2022/01/06 09:43:34;;;;;;;81.80;26.17;;;;;;;6.83;100.00;99882.56;1644982;87;21177;-96
2022/01/06 09:46:04;;;;;;;93.47;27.60;;;;;;;6.86;100.00;99897.32;1645259;87;21036;-95
2022/01/06 09:48:31;;;;;;;86.82;27.98;;;;;;;6.92;100.00;99897.64;1605421;89;21179;-95
2022/01/06 09:50:57;;;;;;;84.45;27.17;;;;;;;6.98;100.00;99889.14;1605416;89;21077;-95
2022/01/06 09:53:26;;;;;;;83.33;27.48;;;;;;;6.96;100.00;99884.55;1606100;89;21546;-94
2022/01/06 09:55:52;;;;;;;90.07;28.92;;;;;;;6.98;100.00;99896.63;1601656;89;21180;-94
2022/01/06 09:58:25;;;;;;;83.45;25.80;;;;;;;7.02;100.00;99898.27;1599711;89;21603;-95
2022/01/06 10:00:53;;;;;;;80.50;26.07;;;;;;;6.95;100.00;99907.86;1596797;89;21191;-93
2022/01/06 10:03:19;;;;;;;91.72;29.10;;;;;;;6.86;100.00;99885.80;1598352;89;21150;-94
2022/01/06 10:05:50;;;;;;;99.75;28.75;;;;;;;6.96;100.00;99896.07;1587380;89;21135;-94
2022/01/06 10:08:29;;;;;;;84.70;28.60;;;;;;;6.98;100.00;99893.95;1585444;90;21555;-95
2022/01/06 10:11:14;;;;;;;98.20;30.55;;;;;;;6.94;100.00;99886.66;1504909;95;21109;-95
2022/01/06 10:13:43;;;;;;;93.92;28.85;;;;;;;6.96;100.00;99882.67;1481538;95;21380;-96
2022/01/06 10:16:20;;;;;;;86.17;28.77;;;;;;;7.01;100.00;99876.58;1471842;96;21230;-94
2022/01/06 10:19:11;;;;;;;88.55;28.07;;;;;;;7.04;100.00;99870.70;1479092;95;21698;-96
2022/01/06 10:21:46;;;;;;;95.15;28.00;;;;;;;7.00;100.00;99877.61;1476618;96;21668;-95
2022/01/06 10:24:24;;;;;;;98.75;28.15;;;;;;;7.00;100.00;99876.27;1479234;96;21145;-95
2022/01/06 10:27:01;;;;;;;88.65;26.48;;;;;;;7.01;100.00;99876.03;1478394;96;21175;-96
2022/01/06 10:29:32;;;;;;;92.00;27.20;;;;;;;6.94;100.00;99866.58;1487741;96;21561;-95
2022/01/06 10:32:08;;;;;;;99.10;28.95;;;;;;;6.90;100.00;99864.14;1447970;99;21586;-96
2022/01/06 10:34:39;;;;;;;94.83;29.75;;;;;;;6.92;100.00;99864.17;1405953;102;21200;-94
2022/01/06 10:37:18;;;;;;;94.83;29.42;;;;;;;6.94;100.00;99862.56;1400387;101;21149;-92
2022/01/06 10:39:47;;;;;;;90.28;29.00;;;;;;;6.92;100.00;99863.37;1381116;102;21180;-90
2022/01/06 10:42:13;;;;;;;85.77;27.27;;;;;;;6.92;100.00;99872.20;1384882;102;21139;-91
2022/01/06 10:44:53;;;;;;;90.30;28.17;;;;;;;6.89;100.00;99874.59;1405589;100;21198;-91
2022/01/06 10:47:39;;;;;;;80.45;26.00;;;;;;;6.80;100.00;99862.18;1365038;97;21154;-91
2022/01/06 10:50:33;;;;;;;;;;;;;;;;;;;;;
2022/01/06 10:52:57;;;;;;;92.27;29.67;;;;;;;6.82;100.00;99864.89;1376520;101;21138;-94
2022/01/06 10:55:29;;;;;;;96.82;27.42;;;;;;;6.82;100.00;99856.02;1384423;101;21595;-94
2022/01/06 11:00:37;;;;;;;89.52;27.62;;;;;;;7.04;100.00;99876.06;1366885;104;21147;-92
2022/01/06 11:03:15;;;;;;;84.92;26.35;;;;;;;6.99;100.00;99876.81;1367017;104;21233;-93
2022/01/06 11:05:55;;;;;;;86.25;27.02;;;;;;;6.96;100.00;99877.32;1349647;105;22102;-93
2022/01/06 11:08:32;;;;;;;91.55;26.70;;;;;;;6.91;100.00;99881.81;1335715;105;21189;-93
2022/01/06 11:18:55;;;;;;;87.55;26.55;;;;;;;6.83;100.00;99885.23;1308395;107;21239;-92
2022/01/06 11:34:16;;;;;;;87.80;27.55;;;;;;;6.76;100.00;99911.92;1326357;106;21200;-93
2022/01/06 11:37:13;;;;;;;;;;;;;;;;;;;;;
2022/01/06 12:10:40;;;;;;;;;;;;;;;;;;;;;
2022/01/06 12:16:01;;;;;;;119.02;32.83;;;;;;;6.14;100.00;99951.30;1613366;84;21109;-93
2022/01/06 12:18:36;;;;;;;128.42;33.88;;;;;;;6.16;100.00;99951.08;1558740;91;21342;-93
2022/01/06 12:21:15;;;;;;;;;;;;;;;;;;;;;
2022/01/06 12:23:51;;;;;;;;;;;;;;;;;;;;;
2022/01/06 12:32:37;;;;;;;;;;;;;;;;;;;;;
2022/01/06 12:35:14;;;;;;;;;;;;;;;;;;;;;
2022/01/06 12:37:41;;;;;;;131.20;35.03;;;;;;;6.00;100.00;100024.95;1322867;107;21248;-93
2022/01/06 13:08:25;;;;;;;;;;;;;;;;;;;;;
2022/01/06 14:37:51;;;;;;;;;;;;;;;;;;;;;
2022/01/06 14:40:17;;;;;;;140.12;37.23;;;;;;;5.51;100.00;100097.30;1249584;112;21226;-92